Time;durP1;ratioP1;P1;durP2;ratioP2;P2;SDS_P1;SDS_P2;PMS_P1;PMS_P2;Temp;Humidity;BMP_temperature;BMP_pressure;BME280_temperature;BME280_humidity;BME280_pressure;Samples;Min_cycle;Max_cycle;Signal;HPM_P1;HPM_P2
2023/07/28 00:00:15;;;;;;;;;;;20.40;74.50;;;;;;5089560;28;19916;-74
2023/07/28 00:02:40;;;;;;;;;;;20.40;74.40;;;;;;5108851;28;19912;-74
2023/07/28 00:05:06;;;;;;;;;;;20.40;74.50;;;;;;5086090;28;19945;-73
2023/07/28 00:07:33;;;;;;;;;;;20.40;74.20;;;;;;5077689;28;20072;-74
2023/07/28 00:09:59;;;;;;;;;;;20.40;74.50;;;;;;5084249;28;20006;-74
2023/07/28 00:12:24;;;;;;;;;;;20.40;74.80;;;;;;5084606;28;19999;-74
2023/07/28 00:14:50;;;;;;;;;;;20.40;74.70;;;;;;5081536;28;19927;-74
2023/07/28 00:17:15;;;;;;;;;;;20.40;74.60;;;;;;5085728;28;19911;-73
2023/07/28 00:19:41;;;;;;;;;;;20.40;74.40;;;;;;5084760;28;19947;-74
2023/07/28 00:22:06;;;;;;;;;;;20.40;74.10;;;;;;5089296;28;19912;-74
2023/07/28 00:24:32;;;;;;;;;;;20.40;74.30;;;;;;5091770;28;19916;-74
2023/07/28 00:26:57;;;;;;;;;;;20.40;74.60;;;;;;5104285;28;19912;-74
2023/07/28 00:29:23;;;;;;;;;;;20.40;74.90;;;;;;5068781;28;19920;-73
2023/07/28 00:31:48;;;;;;;;;;;20.40;74.90;;;;;;5103864;28;20393;-74
2023/07/28 00:34:14;;;;;;;;;;;20.40;74.70;;;;;;5093755;28;19907;-74
2023/07/28 00:36:40;;;;;;;;;;;20.40;74.70;;;;;;5077808;28;19915;-74
2023/07/28 00:39:06;;;;;;;;;;;20.40;74.70;;;;;;5072869;28;19912;-73
2023/07/28 00:41:31;;;;;;;;;;;20.40;75.00;;;;;;5083777;28;19918;-74
2023/07/28 00:43:57;;;;;;;;;;;20.40;74.80;;;;;;5092092;28;20390;-74
2023/07/28 00:46:22;;;;;;;;;;;20.40;75.00;;;;;;5077667;28;19907;-74
2023/07/28 00:48:48;;;;;;;;;;;20.40;75.20;;;;;;5077269;28;20428;-74
2023/07/28 00:51:13;;;;;;;;;;;20.40;75.30;;;;;;5109282;28;19916;-74
2023/07/28 00:53:38;;;;;;;;;;;20.40;75.10;;;;;;5077546;28;19909;-74
2023/07/28 00:56:04;;;;;;;;;;;20.40;75.20;;;;;;5084964;28;19927;-74
2023/07/28 00:58:29;;;;;;;;;;;20.40;75.50;;;;;;5075802;28;19962;-74
2023/07/28 01:00:55;;;;;;;;;;;20.40;75.00;;;;;;5097942;28;19908;-74
2023/07/28 01:03:20;;;;;;;;;;;20.40;75.20;;;;;;5092712;28;19911;-74
2023/07/28 01:05:49;;;;;;;;;;;20.40;75.10;;;;;;5084599;28;19937;-74
2023/07/28 01:08:33;;;;;;;;;;;20.30;75.20;;;;;;5073237;28;19920;-73
2023/07/28 01:10:58;;;;;;;;;;;20.40;75.20;;;;;;5087011;28;20375;-74
2023/07/28 01:13:23;;;;;;;;;;;20.40;75.00;;;;;;5084080;28;19924;-75
2023/07/28 01:15:49;;;;;;;;;;;20.40;74.80;;;;;;5080047;28;19912;-74
2023/07/28 01:18:15;;;;;;;;;;;20.40;75.20;;;;;;5089080;28;20072;-74
2023/07/28 01:20:40;;;;;;;;;;;20.40;75.10;;;;;;5090845;28;19911;-74
2023/07/28 01:23:09;;;;;;;;;;;20.30;74.80;;;;;;5082047;27;19942;-74
2023/07/28 01:25:35;;;;;;;;;;;20.40;74.80;;;;;;5106877;28;19964;-73
2023/07/28 01:28:00;;;;;;;;;;;20.40;74.80;;;;;;5086210;28;20546;-74
2023/07/28 01:30:26;;;;;;;;;;;20.40;74.70;;;;;;5085783;28;19912;-73
2023/07/28 01:32:54;;;;;;;;;;;20.40;74.90;;;;;;5089634;28;19916;-74
2023/07/28 01:35:19;;;;;;;;;;;20.40;75.10;;;;;;5089286;28;19912;-74
2023/07/28 01:37:50;;;;;;;;;;;20.40;75.20;;;;;;5088787;28;19931;-74
2023/07/28 01:40:18;;;;;;;;;;;20.40;75.10;;;;;;5091466;28;20709;-73
2023/07/28 01:42:44;;;;;;;;;;;20.40;74.90;;;;;;5095997;28;19923;-74
2023/07/28 01:45:09;;;;;;;;;;;20.40;75.10;;;;;;5097533;28;19912;-74
2023/07/28 01:47:35;;;;;;;;;;;20.40;75.40;;;;;;5079714;28;19911;-74
2023/07/28 01:50:00;;;;;;;;;;;20.40;75.40;;;;;;5097190;28;20325;-74
2023/07/28 01:52:26;;;;;;;;;;;20.40;75.10;;;;;;5082060;28;19912;-74
2023/07/28 01:54:51;;;;;;;;;;;20.40;75.30;;;;;;5085418;28;20375;-74
2023/07/28 01:57:17;;;;;;;;;;;20.40;75.10;;;;;;5080227;28;19966;-74
2023/07/28 01:59:42;;;;;;;;;;;20.40;75.20;;;;;;5078916;28;19908;-74
2023/07/28 02:02:08;;;;;;;;;;;20.40;75.10;;;;;;5097143;28;20358;-74
2023/07/28 02:04:33;;;;;;;;;;;20.40;75.10;;;;;;5076635;28;19965;-74
2023/07/28 02:06:59;;;;;;;;;;;20.40;75.20;;;;;;5068781;28;19919;-74
2023/07/28 02:09:24;;;;;;;;;;;20.40;75.50;;;;;;5084429;28;19916;-74
2023/07/28 02:11:50;;;;;;;;;;;20.40;76.20;;;;;;5083175;28;19953;-73
2023/07/28 02:14:15;;;;;;;;;;;20.40;75.60;;;;;;5087641;28;20281;-73
2023/07/28 02:16:40;;;;;;;;;;;20.40;75.50;;;;;;5071832;28;20349;-74
2023/07/28 02:19:06;;;;;;;;;;;20.40;75.60;;;;;;5088440;28;21753;-74
2023/07/28 02:21:31;;;;;;;;;;;20.40;75.30;;;;;;5085142;28;19911;-73
2023/07/28 02:23:57;;;;;;;;;;;20.40;75.20;;;;;;5087396;28;19916;-74
2023/07/28 02:26:22;;;;;;;;;;;20.40;75.30;;;;;;5087855;28;19912;-73
2023/07/28 02:28:48;;;;;;;;;;;20.40;75.30;;;;;;5088061;28;20030;-74
2023/07/28 02:31:13;;;;;;;;;;;20.40;75.00;;;;;;5079044;28;19916;-74
2023/07/28 02:33:39;;;;;;;;;;;20.40;75.00;;;;;;5087465;28;19920;-74
2023/07/28 02:36:04;;;;;;;;;;;20.40;74.80;;;;;;5087458;28;19912;-73
2023/07/28 02:38:30;;;;;;;;;;;20.40;75.30;;;;;;5094059;28;20298;-74
2023/07/28 02:40:55;;;;;;;;;;;20.40;75.00;;;;;;5096534;28;19911;-74
2023/07/28 02:43:20;;;;;;;;;;;20.40;74.90;;;;;;5095560;28;19919;-74
2023/07/28 02:45:55;;;;;;;;;;;20.40;74.90;;;;;;5114739;28;19915;-74
2023/07/28 02:48:21;;;;;;;;;;;20.30;74.90;;;;;;5104583;28;20280;-74
2023/07/28 02:50:47;;;;;;;;;;;20.40;75.00;;;;;;5069944;28;19919;-74
2023/07/28 02:53:15;;;;;;;;;;;20.40;74.60;;;;;;5069546;28;21445;-74
2023/07/28 02:55:44;;;;;;;;;;;20.40;74.80;;;;;;5087446;28;20029;-74
2023/07/28 02:58:10;;;;;;;;;;;20.40;74.70;;;;;;5087197;28;20417;-74
2023/07/28 03:00:38;;;;;;;;;;;20.40;74.70;;;;;;5088099;28;19951;-74
2023/07/28 03:03:04;;;;;;;;;;;20.40;75.00;;;;;;5071238;28;19919;-73
2023/07/28 03:05:33;;;;;;;;;;;20.30;74.80;;;;;;5104969;28;20283;-74
2023/07/28 03:07:58;;;;;;;;;;;20.40;74.80;;;;;;5072512;28;19915;-74
2023/07/28 03:10:24;;;;;;;;;;;20.30;74.80;;;;;;5078268;28;20290;-74
2023/07/28 03:12:49;;;;;;;;;;;20.30;74.90;;;;;;5068637;28;19924;-74
2023/07/28 03:15:14;;;;;;;;;;;20.30;74.70;;;;;;5070251;28;19931;-74
2023/07/28 03:17:40;;;;;;;;;;;20.30;74.90;;;;;;5086107;28;19968;-73
2023/07/28 03:20:06;;;;;;;;;;;20.40;75.00;;;;;;5087467;28;20379;-74
2023/07/28 03:22:31;;;;;;;;;;;20.40;74.80;;;;;;5085160;28;19912;-73
2023/07/28 03:24:57;;;;;;;;;;;20.30;74.90;;;;;;5087810;28;19960;-73
2023/07/28 03:27:22;;;;;;;;;;;20.30;74.80;;;;;;5083527;28;19919;-74
2023/07/28 03:29:47;;;;;;;;;;;20.30;75.10;;;;;;5104865;28;21519;-74
2023/07/28 03:32:13;;;;;;;;;;;20.30;75.20;;;;;;5103790;28;19968;-74
2023/07/28 03:34:38;;;;;;;;;;;20.30;75.10;;;;;;5084585;28;19968;-74
2023/07/28 03:37:04;;;;;;;;;;;20.30;74.90;;;;;;5092889;28;20375;-74
2023/07/28 03:39:31;;;;;;;;;;;20.30;75.00;;;;;;5093810;28;19919;-74
2023/07/28 03:41:56;;;;;;;;;;;20.30;75.10;;;;;;5077360;28;19908;-74
2023/07/28 03:44:22;;;;;;;;;;;20.30;75.20;;;;;;5094347;28;20016;-74
2023/07/28 03:46:47;;;;;;;;;;;20.30;75.30;;;;;;5095375;28;19987;-74
2023/07/28 03:49:13;;;;;;;;;;;20.30;75.20;;;;;;5094929;28;19915;-74
2023/07/28 03:51:38;;;;;;;;;;;20.30;75.10;;;;;;5080047;28;19920;-74
2023/07/28 03:54:03;;;;;;;;;;;20.30;75.10;;;;;;5081323;28;19916;-74
2023/07/28 03:56:29;;;;;;;;;;;20.30;75.40;;;;;;5077891;28;19970;-74
2023/07/28 03:58:54;;;;;;;;;;;20.30;75.30;;;;;;5111654;28;20340;-74
2023/07/28 04:01:21;;;;;;;;;;;20.30;75.90;;;;;;5073972;28;19912;-74
2023/07/28 04:03:47;;;;;;;;;;;20.30;75.30;;;;;;5076757;28;19965;-74
2023/07/28 04:06:12;;;;;;;;;;;20.30;75.00;;;;;;5092992;28;19963;-74
2023/07/28 04:08:38;;;;;;;;;;;20.30;74.90;;;;;;5100481;28;20348;-74
2023/07/28 04:11:04;;;;;;;;;;;20.30;75.00;;;;;;5103924;28;20433;-74
2023/07/28 04:13:29;;;;;;;;;;;20.30;74.90;;;;;;5083352;28;19934;-74
2023/07/28 04:15:55;;;;;;;;;;;20.30;75.10;;;;;;5085520;28;19957;-73
2023/07/28 04:18:20;;;;;;;;;;;20.30;75.10;;;;;;5083055;28;20434;-74
2023/07/28 04:20:46;;;;;;;;;;;20.30;75.00;;;;;;5074930;28;20367;-74
2023/07/28 04:23:12;;;;;;;;;;;20.30;74.90;;;;;;5084481;28;19998;-74
2023/07/28 04:25:37;;;;;;;;;;;20.30;74.90;;;;;;5085552;28;20003;-74
2023/07/28 04:28:03;;;;;;;;;;;20.30;75.00;;;;;;5083368;28;20007;-74
2023/07/28 04:30:28;;;;;;;;;;;20.30;74.90;;;;;;5084646;28;19923;-74
2023/07/28 04:32:54;;;;;;;;;;;20.30;75.00;;;;;;5083546;28;19939;-74
2023/07/28 04:35:19;;;;;;;;;;;20.30;75.00;;;;;;5076212;28;19919;-74
2023/07/28 04:37:44;;;;;;;;;;;20.30;74.80;;;;;;5085222;28;19975;-74
2023/07/28 04:40:10;;;;;;;;;;;20.30;74.80;;;;;;5068877;28;19919;-74
2023/07/28 04:42:36;;;;;;;;;;;20.30;75.00;;;;;;5089653;28;19943;-74
2023/07/28 04:45:02;;;;;;;;;;;20.30;74.70;;;;;;5111927;28;19923;-74
2023/07/28 04:47:27;;;;;;;;;;;20.30;74.90;;;;;;5083247;28;20219;-73
2023/07/28 04:49:52;;;;;;;;;;;20.30;75.50;;;;;;5083940;28;19916;-74
2023/07/28 04:52:18;;;;;;;;;;;20.30;74.90;;;;;;5067620;28;19955;-74
2023/07/28 04:54:43;;;;;;;;;;;20.30;74.90;;;;;;5084691;28;19984;-74
2023/07/28 04:57:09;;;;;;;;;;;20.30;74.80;;;;;;5079405;28;19931;-74
2023/07/28 04:59:34;;;;;;;;;;;20.30;75.00;;;;;;5082182;28;20290;-73
2023/07/28 05:02:00;;;;;;;;;;;20.30;75.00;;;;;;5081837;28;19995;-74
2023/07/28 05:04:25;;;;;;;;;;;20.30;74.90;;;;;;5084364;28;19911;-74
2023/07/28 05:06:51;;;;;;;;;;;20.30;74.90;;;;;;5085280;28;19965;-74
2023/07/28 05:09:16;;;;;;;;;;;20.30;74.80;;;;;;5085228;28;19915;-74
2023/07/28 05:11:42;;;;;;;;;;;20.30;74.70;;;;;;5103909;28;19915;-74
2023/07/28 05:14:08;;;;;;;;;;;20.30;75.10;;;;;;5108763;28;19964;-74
2023/07/28 05:16:34;;;;;;;;;;;20.30;75.20;;;;;;5104790;28;19939;-74
2023/07/28 05:18:59;;;;;;;;;;;20.30;75.00;;;;;;5083950;28;19912;-73
2023/07/28 05:21:25;;;;;;;;;;;20.30;74.90;;;;;;5068184;28;19973;-74
2023/07/28 05:23:50;;;;;;;;;;;20.30;75.00;;;;;;5068720;28;19916;-74
2023/07/28 05:26:16;;;;;;;;;;;20.30;75.00;;;;;;5077791;28;19939;-73
2023/07/28 05:28:41;;;;;;;;;;;20.30;75.30;;;;;;5078751;28;19958;-73
2023/07/28 05:31:07;;;;;;;;;;;20.40;75.10;;;;;;5084863;28;19919;-74
2023/07/28 05:33:32;;;;;;;;;;;20.30;74.60;;;;;;5083530;28;19989;-73
2023/07/28 05:36:04;;;;;;;;;;;20.30;74.60;;;;;;5094233;28;19999;-73
2023/07/28 05:38:29;;;;;;;;;;;20.40;74.90;;;;;;5078182;28;19912;-74
2023/07/28 05:40:58;;;;;;;;;;;20.40;75.00;;;;;;5079863;28;19933;-74
2023/07/28 05:43:23;;;;;;;;;;;20.30;75.20;;;;;;5077653;28;19919;-74
2023/07/28 05:45:49;;;;;;;;;;;20.30;74.90;;;;;;5077722;28;20407;-74
2023/07/28 05:48:14;;;;;;;;;;;20.40;74.90;;;;;;5094339;28;20097;-74
2023/07/28 05:50:40;;;;;;;;;;;20.30;74.80;;;;;;5097224;28;19951;-74
2023/07/28 05:53:06;;;;;;;;;;;20.30;75.00;;;;;;5075329;28;19916;-74
2023/07/28 05:55:31;;;;;;;;;;;20.30;74.90;;;;;;5087253;28;20002;-74
2023/07/28 05:57:57;;;;;;;;;;;20.30;74.80;;;;;;5077453;28;19920;-74
2023/07/28 06:00:22;;;;;;;;;;;20.40;74.80;;;;;;5077030;28;19916;-73
2023/07/28 06:02:48;;;;;;;;;;;20.30;74.90;;;;;;5089768;28;20290;-74
2023/07/28 06:05:13;;;;;;;;;;;20.30;75.00;;;;;;5071073;28;20587;-74
2023/07/28 06:07:39;;;;;;;;;;;20.40;74.90;;;;;;5089098;28;19916;-74
2023/07/28 06:10:04;;;;;;;;;;;20.40;74.80;;;;;;5110248;28;19912;-73
2023/07/28 06:12:30;;;;;;;;;;;20.40;74.80;;;;;;5097451;28;19923;-73
2023/07/28 06:14:56;;;;;;;;;;;20.40;74.70;;;;;;5076667;28;19920;-74
2023/07/28 06:17:21;;;;;;;;;;;20.40;75.30;;;;;;5099100;28;19908;-74
2023/07/28 06:19:47;;;;;;;;;;;20.30;75.10;;;;;;5077484;28;19939;-74
2023/07/28 06:22:12;;;;;;;;;;;20.30;75.00;;;;;;5076031;28;19922;-74
2023/07/28 06:24:37;;;;;;;;;;;20.40;75.30;;;;;;5078674;28;20333;-74
2023/07/28 06:27:07;;;;;;;;;;;20.30;75.40;;;;;;5096516;28;19916;-74
2023/07/28 06:29:33;;;;;;;;;;;20.30;75.30;;;;;;5101754;28;20002;-74
2023/07/28 06:31:58;;;;;;;;;;;20.40;75.00;;;;;;5079796;28;19999;-74
2023/07/28 06:34:24;;;;;;;;;;;20.40;75.00;;;;;;5096183;28;19951;-74
2023/07/28 06:36:49;;;;;;;;;;;20.40;75.10;;;;;;5096229;28;20010;-74
2023/07/28 06:39:15;;;;;;;;;;;20.40;75.30;;;;;;5096403;28;19916;-74
2023/07/28 06:41:40;;;;;;;;;;;20.40;75.10;;;;;;5074301;28;19998;-74
2023/07/28 06:44:08;;;;;;;;;;;20.40;75.20;;;;;;5074751;28;19961;-74
2023/07/28 06:46:33;;;;;;;;;;;20.40;75.00;;;;;;5096406;28;19916;-74
2023/07/28 06:48:59;;;;;;;;;;;20.30;74.90;;;;;;5096067;28;20317;-74
2023/07/28 06:51:24;;;;;;;;;;;20.30;75.00;;;;;;5079139;28;20049;-74
2023/07/28 06:53:50;;;;;;;;;;;20.30;75.20;;;;;;5086146;28;20434;-74
2023/07/28 06:56:16;;;;;;;;;;;20.30;75.20;;;;;;5087628;28;19942;-74
2023/07/28 06:58:41;;;;;;;;;;;20.40;75.20;;;;;;5068132;28;19935;-75
2023/07/28 07:01:10;;;;;;;;;;;20.40;74.80;;;;;;5088545;28;19919;-75
2023/07/28 07:03:38;;;;;;;;;;;20.40;74.90;;;;;;5110976;28;19912;-74
2023/07/28 07:06:04;;;;;;;;;;;20.40;75.30;;;;;;5077732;28;19942;-75
2023/07/28 07:08:29;;;;;;;;;;;20.40;75.40;;;;;;5109971;28;19912;-75
2023/07/28 07:10:55;;;;;;;;;;;20.40;75.00;;;;;;5093684;28;19912;-75
2023/07/28 07:13:20;;;;;;;;;;;20.40;75.10;;;;;;5105170;28;19973;-74
2023/07/28 07:15:46;;;;;;;;;;;20.40;75.30;;;;;;5096070;28;19915;-75
2023/07/28 07:18:11;;;;;;;;;;;20.40;75.40;;;;;;5094198;28;20295;-74
2023/07/28 07:20:37;;;;;;;;;;;20.40;75.50;;;;;;5073489;28;20056;-74
2023/07/28 07:23:03;;;;;;;;;;;20.40;75.40;;;;;;5075479;28;19915;-74
2023/07/28 07:25:29;;;;;;;;;;;20.40;75.40;;;;;;5066413;28;19912;-74
2023/07/28 07:27:54;;;;;;;;;;;20.40;75.40;;;;;;5079970;28;19912;-74
2023/07/28 07:30:19;;;;;;;;;;;20.40;75.70;;;;;;5087553;28;19919;-75
2023/07/28 07:32:45;;;;;;;;;;;20.40;75.80;;;;;;5077340;28;19955;-74
2023/07/28 07:35:10;;;;;;;;;;;20.40;75.90;;;;;;5085439;28;19912;-74
2023/07/28 07:37:36;;;;;;;;;;;20.40;75.80;;;;;;5068630;28;19916;-74
2023/07/28 07:40:01;;;;;;;;;;;20.40;76.00;;;;;;5091192;28;19907;-74
2023/07/28 07:42:28;;;;;;;;;;;20.40;75.90;;;;;;5094073;28;19944;-74
2023/07/28 07:44:53;;;;;;;;;;;20.50;76.10;;;;;;5092612;28;19950;-74
2023/07/28 07:47:18;;;;;;;;;;;20.50;76.10;;;;;;5092511;28;19974;-74
2023/07/28 07:49:44;;;;;;;;;;;20.50;76.20;;;;;;5089870;28;19916;-75
2023/07/28 07:52:10;;;;;;;;;;;20.50;76.30;;;;;;5086800;28;20309;-74
2023/07/28 07:54:35;;;;;;;;;;;20.50;76.20;;;;;;5071658;28;20351;-73
2023/07/28 07:57:03;;;;;;;;;;;20.50;76.30;;;;;;5106418;28;20464;-75
2023/07/28 07:59:30;;;;;;;;;;;20.50;76.30;;;;;;5090362;28;20000;-74
2023/07/28 08:01:56;;;;;;;;;;;20.50;76.20;;;;;;5070622;28;20484;-74
2023/07/28 08:04:21;;;;;;;;;;;20.50;76.20;;;;;;5082343;28;20038;-74
2023/07/28 08:06:47;;;;;;;;;;;20.50;76.10;;;;;;5072114;28;19916;-75
2023/07/28 08:09:13;;;;;;;;;;;20.50;76.00;;;;;;5087169;28;19912;-75
2023/07/28 08:11:39;;;;;;;;;;;20.50;76.00;;;;;;5089601;28;19924;-74
2023/07/28 08:14:04;;;;;;;;;;;20.50;75.90;;;;;;5072231;28;20014;-74
2023/07/28 08:16:30;;;;;;;;;;;20.50;75.90;;;;;;5111638;28;20011;-74
2023/07/28 08:18:55;;;;;;;;;;;20.60;75.90;;;;;;5068907;28;19912;-74
2023/07/28 08:21:22;;;;;;;;;;;20.60;75.80;;;;;;5071501;28;19934;-74
2023/07/28 08:23:48;;;;;;;;;;;20.60;75.80;;;;;;5087187;28;19913;-74
2023/07/28 08:26:13;;;;;;;;;;;20.60;76.10;;;;;;5074000;28;19920;-74
2023/07/28 08:28:39;;;;;;;;;;;20.60;75.90;;;;;;5111719;28;19911;-74
2023/07/28 08:31:04;;;;;;;;;;;20.60;75.80;;;;;;5070029;28;19920;-74
2023/07/28 08:33:30;;;;;;;;;;;20.60;76.00;;;;;;5092568;28;19919;-74
2023/07/28 08:35:55;;;;;;;;;;;20.60;75.60;;;;;;5091590;28;19967;-74
2023/07/28 08:38:21;;;;;;;;;;;20.60;75.80;;;;;;5084432;28;20364;-73
2023/07/28 08:40:46;;;;;;;;;;;20.60;75.90;;;;;;5092207;28;19976;-74
2023/07/28 08:43:12;;;;;;;;;;;20.60;75.80;;;;;;5069003;28;19920;-74
2023/07/28 08:45:37;;;;;;;;;;;20.60;75.90;;;;;;5079763;28;19919;-74
2023/07/28 08:48:03;;;;;;;;;;;20.60;75.50;;;;;;5059813;28;19912;-74
2023/07/28 08:50:29;;;;;;;;;;;20.60;75.50;;;;;;5068559;28;19916;-75
2023/07/28 08:52:56;;;;;;;;;;;20.60;75.80;;;;;;5082962;28;20371;-74
2023/07/28 08:55:21;;;;;;;;;;;20.60;75.60;;;;;;5088349;28;20381;-73
2023/07/28 08:57:47;;;;;;;;;;;20.60;75.70;;;;;;5109262;28;19962;-74
2023/07/28 09:00:14;;;;;;;;;;;20.60;75.70;;;;;;5109805;28;20283;-74
2023/07/28 09:02:42;;;;;;;;;;;20.60;75.70;;;;;;5089416;28;20439;-74
2023/07/28 09:05:17;;;;;;;;;;;20.60;75.60;;;;;;5106690;28;20350;-73
2023/07/28 09:07:43;;;;;;;;;;;20.60;75.70;;;;;;5105535;28;20002;-73
2023/07/28 09:10:08;;;;;;;;;;;20.60;75.60;;;;;;5108823;28;20022;-73
2023/07/28 09:12:34;;;;;;;;;;;20.60;75.60;;;;;;5068691;28;19920;-73
2023/07/28 09:14:59;;;;;;;;;;;20.70;75.80;;;;;;5106795;28;19912;-74
2023/07/28 09:17:25;;;;;;;;;;;20.70;75.70;;;;;;5095038;28;19916;-74
2023/07/28 09:19:54;;;;;;;;;;;20.70;75.90;;;;;;5078400;28;19972;-74
2023/07/28 09:22:20;;;;;;;;;;;20.60;76.00;;;;;;5078582;28;19928;-73
2023/07/28 09:24:46;;;;;;;;;;;20.70;75.90;;;;;;5089589;28;20347;-74
2023/07/28 09:27:22;;;;;;;;;;;20.70;75.80;;;;;;5091892;28;19911;-73
2023/07/28 09:29:48;;;;;;;;;;;20.60;75.80;;;;;;5096964;28;19933;-73
2023/07/28 09:32:13;;;;;;;;;;;20.70;75.90;;;;;;5094820;28;19920;-73
2023/07/28 09:34:38;;;;;;;;;;;20.70;75.70;;;;;;5093127;28;20371;-73
2023/07/28 09:37:04;;;;;;;;;;;20.70;75.90;;;;;;5090982;28;20259;-74
2023/07/28 09:39:31;;;;;;;;;;;20.70;76.50;;;;;;5088275;28;19986;-73
2023/07/28 09:41:58;;;;;;;;;;;20.70;76.20;;;;;;5097017;28;19919;-73
2023/07/28 09:44:24;;;;;;;;;;;20.70;76.10;;;;;;5074472;28;19919;-74
2023/07/28 09:46:50;;;;;;;;;;;20.70;76.10;;;;;;5097077;28;19932;-73
2023/07/28 09:49:16;;;;;;;;;;;20.70;76.40;;;;;;5089700;28;19922;-73
2023/07/28 09:51:42;;;;;;;;;;;20.70;76.50;;;;;;5093588;28;19920;-73
2023/07/28 09:54:11;;;;;;;;;;;20.80;76.50;;;;;;5093014;28;19919;-73
2023/07/28 09:56:37;;;;;;;;;;;20.80;76.70;;;;;;5113695;28;19920;-73
2023/07/28 09:59:06;;;;;;;;;;;20.80;76.60;;;;;;5075437;28;20394;-74
2023/07/28 10:01:32;;;;;;;;;;;20.70;76.60;;;;;;5077718;28;19918;-73
2023/07/28 10:03:57;;;;;;;;;;;20.80;76.80;;;;;;5084860;28;19916;-73
2023/07/28 10:06:23;;;;;;;;;;;20.80;76.80;;;;;;5094027;28;19915;-73
2023/07/28 10:08:49;;;;;;;;;;;20.80;76.80;;;;;;5091106;28;19916;-73
2023/07/28 10:11:14;;;;;;;;;;;20.80;77.00;;;;;;5074616;28;20002;-73
2023/07/28 10:13:43;;;;;;;;;;;20.80;76.90;;;;;;5092522;28;19919;-73
2023/07/28 10:16:09;;;;;;;;;;;20.80;77.00;;;;;;5074286;28;19923;-73
2023/07/28 10:18:34;;;;;;;;;;;20.80;77.00;;;;;;5082623;28;19915;-73
2023/07/28 10:21:05;;;;;;;;;;;20.80;77.30;;;;;;5089102;27;20008;-73
2023/07/28 10:23:30;;;;;;;;;;;20.80;77.20;;;;;;5082990;28;19912;-73
2023/07/28 10:25:57;;;;;;;;;;;20.80;77.30;;;;;;5080774;28;19966;-74
2023/07/28 10:28:25;;;;;;;;;;;20.80;77.30;;;;;;5090196;28;19915;-73
2023/07/28 10:30:51;;;;;;;;;;;20.80;77.30;;;;;;5103270;28;19912;-73
2023/07/28 10:33:30;;;;;;;;;;;20.80;77.30;;;;;;5089191;28;19927;-73
2023/07/28 10:35:55;;;;;;;;;;;20.80;77.30;;;;;;5089602;28;19923;-73
2023/07/28 10:38:34;;;;;;;;;;;20.90;77.40;;;;;;5077160;28;19916;-73
2023/07/28 10:41:07;;;;;;;;;;;20.80;77.40;;;;;;5071854;28;19983;-73
2023/07/28 10:43:32;;;;;;;;;;;20.80;77.60;;;;;;5088838;28;19922;-73
2023/07/28 10:45:58;;;;;;;;;;;20.80;77.40;;;;;;5064264;28;19912;-73
2023/07/28 10:48:24;;;;;;;;;;;20.80;77.50;;;;;;5087689;28;19916;-73
2023/07/28 10:50:49;;;;;;;;;;;20.90;77.50;;;;;;5086501;28;20275;-73
2023/07/28 10:53:15;;;;;;;;;;;20.80;77.60;;;;;;5083622;28;20023;-73
2023/07/28 10:55:40;;;;;;;;;;;20.80;77.60;;;;;;5108120;28;19912;-74
2023/07/28 10:58:06;;;;;;;;;;;20.90;77.40;;;;;;5086816;28;20326;-73
2023/07/28 11:00:31;;;;;;;;;;;20.90;77.50;;;;;;5088279;28;20007;-73
2023/07/28 11:02:57;;;;;;;;;;;20.90;78.30;;;;;;5091391;28;19912;-74
2023/07/28 11:05:23;;;;;;;;;;;21.00;77.50;;;;;;5096198;28;19919;-73
2023/07/28 11:07:49;;;;;;;;;;;20.90;78.10;;;;;;5095628;28;20010;-73
2023/07/28 11:10:15;;;;;;;;;;;21.00;78.10;;;;;;5077366;28;19922;-73
2023/07/28 11:12:43;;;;;;;;;;;21.00;77.40;;;;;;5094376;28;20038;-73
2023/07/28 11:15:12;;;;;;;;;;;21.00;77.50;;;;;;5091306;28;19951;-72
2023/07/28 11:17:40;;;;;;;;;;;21.00;78.10;;;;;;5071766;28;19912;-74
2023/07/28 11:20:22;;;;;;;;;;;21.00;78.40;;;;;;5076623;28;20290;-74
2023/07/28 11:22:57;;;;;;;;;;;21.00;78.30;;;;;;5077882;28;19962;-74
2023/07/28 11:25:26;;;;;;;;;;;21.00;78.40;;;;;;5085355;28;19913;-74
2023/07/28 11:27:52;;;;;;;;;;;21.10;78.50;;;;;;5093489;28;19915;-74
2023/07/28 11:30:18;;;;;;;;;;;21.20;78.40;;;;;;5093397;28;19915;-74
2023/07/28 11:32:44;;;;;;;;;;;21.10;78.00;;;;;;5074424;28;19923;-74
2023/07/28 11:35:10;;;;;;;;;;;21.20;78.20;;;;;;5065238;28;20056;-73
2023/07/28 11:37:36;;;;;;;;;;;21.20;78.40;;;;;;5091935;28;20029;-73
2023/07/28 11:40:01;;;;;;;;;;;21.30;78.60;;;;;;5084950;28;20018;-73
2023/07/28 11:42:30;;;;;;;;;;;21.30;78.40;;;;;;5088655;28;19916;-73
2023/07/28 11:44:56;;;;;;;;;;;21.30;78.50;;;;;;5082802;28;19923;-74
2023/07/28 11:47:21;;;;;;;;;;;21.40;78.30;;;;;;5071846;28;19916;-74
2023/07/28 11:49:47;;;;;;;;;;;21.40;78.10;;;;;;5089165;28;19912;-73
2023/07/28 11:52:13;;;;;;;;;;;21.40;78.10;;;;;;5071439;28;20595;-73
2023/07/28 11:54:38;;;;;;;;;;;21.40;78.20;;;;;;5105489;28;19923;-73
2023/07/28 11:57:04;;;;;;;;;;;21.40;78.20;;;;;;5084204;28;19931;-73
2023/07/28 11:59:29;;;;;;;;;;;21.30;78.00;;;;;;5083769;28;20368;-74
2023/07/28 12:01:58;;;;;;;;;;;21.30;78.20;;;;;;5100144;28;19916;-74
2023/07/28 12:04:25;;;;;;;;;;;21.30;79.30;;;;;;5071836;28;19915;-73
2023/07/28 12:07:11;;;;;;;;;;;21.30;78.50;;;;;;5086221;28;20006;-74
2023/07/28 12:09:45;;;;;;;;;;;21.40;78.50;;;;;;5099138;28;19916;-73
2023/07/28 12:12:11;;;;;;;;;;;21.40;78.10;;;;;;5099887;28;19920;-73
2023/07/28 12:14:37;;;;;;;;;;;21.30;78.30;;;;;;5086109;28;20287;-73
2023/07/28 12:17:03;;;;;;;;;;;21.30;78.80;;;;;;5085553;28;19920;-74
2023/07/28 12:19:29;;;;;;;;;;;21.40;78.90;;;;;;5080338;28;19920;-74
2023/07/28 12:21:54;;;;;;;;;;;21.40;78.50;;;;;;5064165;28;19927;-74
2023/07/28 12:24:19;;;;;;;;;;;21.30;78.60;;;;;;5085423;28;19972;-74
2023/07/28 12:26:48;;;;;;;;;;;21.30;78.70;;;;;;5088565;28;19916;-73
2023/07/28 12:29:14;;;;;;;;;;;21.30;78.60;;;;;;5087385;28;19927;-74
2023/07/28 12:31:39;;;;;;;;;;;21.30;79.10;;;;;;5077705;28;19907;-74
2023/07/28 12:34:05;;;;;;;;;;;21.40;79.10;;;;;;5090088;28;20426;-74
2023/07/28 12:36:30;;;;;;;;;;;21.40;79.00;;;;;;5084540;28;20006;-74
2023/07/28 12:38:56;;;;;;;;;;;21.40;78.80;;;;;;5091868;28;19923;-74
2023/07/28 12:41:21;;;;;;;;;;;21.40;79.00;;;;;;5068147;28;19937;-73
2023/07/28 12:43:47;;;;;;;;;;;21.40;79.20;;;;;;5087814;28;19924;-74
2023/07/28 12:46:12;;;;;;;;;;;21.40;79.00;;;;;;5077506;28;19914;-74
2023/07/28 12:48:37;;;;;;;;;;;21.40;79.00;;;;;;5088247;28;19948;-73
2023/07/28 12:51:03;;;;;;;;;;;21.40;79.00;;;;;;5087273;28;19916;-74
2023/07/28 12:53:28;;;;;;;;;;;21.50;79.20;;;;;;5067824;28;19959;-74
2023/07/28 12:55:55;;;;;;;;;;;21.50;79.10;;;;;;5074113;28;20183;-74
2023/07/28 12:58:20;;;;;;;;;;;21.50;78.70;;;;;;5103560;28;19930;-74
2023/07/28 13:00:46;;;;;;;;;;;21.60;79.60;;;;;;5074906;28;19908;-74
2023/07/28 13:03:11;;;;;;;;;;;21.50;78.80;;;;;;5071830;28;19908;-74
2023/07/28 13:05:37;;;;;;;;;;;21.50;78.70;;;;;;5092300;28;19991;-74
2023/07/28 13:08:02;;;;;;;;;;;21.40;78.90;;;;;;5076611;28;19919;-74
2023/07/28 13:10:27;;;;;;;;;;;21.50;79.10;;;;;;5075147;28;19911;-74
2023/07/28 13:12:53;;;;;;;;;;;21.40;79.20;;;;;;5101163;28;19919;-74
2023/07/28 13:15:18;;;;;;;;;;;21.50;79.20;;;;;;5086858;28;19920;-74
2023/07/28 13:17:44;;;;;;;;;;;21.50;79.10;;;;;;5081491;28;19987;-74
2023/07/28 13:20:11;;;;;;;;;;;21.50;79.00;;;;;;5092755;28;19919;-74
2023/07/28 13:22:36;;;;;;;;;;;21.50;79.20;;;;;;5086791;28;20290;-74
2023/07/28 13:25:02;;;;;;;;;;;21.50;79.20;;;;;;5077151;28;19915;-74
2023/07/28 13:27:28;;;;;;;;;;;21.50;79.20;;;;;;5065331;28;19912;-74
2023/07/28 13:29:54;;;;;;;;;;;21.50;79.50;;;;;;5092917;28;20468;-74
2023/07/28 13:32:23;;;;;;;;;;;21.50;79.20;;;;;;5088316;28;20014;-74
2023/07/28 13:34:48;;;;;;;;;;;21.50;79.20;;;;;;5090103;28;19915;-74
2023/07/28 13:37:14;;;;;;;;;;;21.60;79.10;;;;;;5085849;28;19931;-74
2023/07/28 13:39:39;;;;;;;;;;;21.60;79.20;;;;;;5097054;28;19912;-74
2023/07/28 13:42:05;;;;;;;;;;;21.50;79.30;;;;;;5071741;28;19998;-74
2023/07/28 13:44:30;;;;;;;;;;;21.60;79.20;;;;;;5083496;28;20332;-74
2023/07/28 13:46:56;;;;;;;;;;;21.50;79.00;;;;;;5090380;28;19911;-74
2023/07/28 13:49:21;;;;;;;;;;;21.60;79.40;;;;;;5068313;28;19998;-75
2023/07/28 13:51:47;;;;;;;;;;;21.70;79.10;;;;;;5066526;28;19965;-74
2023/07/28 13:54:12;;;;;;;;;;;21.60;78.90;;;;;;5084607;28;20359;-74
2023/07/28 13:56:38;;;;;;;;;;;21.60;79.10;;;;;;5093469;28;19927;-74
2023/07/28 13:59:03;;;;;;;;;;;21.60;79.10;;;;;;5110088;28;19984;-75
2023/07/28 14:01:29;;;;;;;;;;;21.70;79.20;;;;;;5094732;28;19922;-74
2023/07/28 14:03:54;;;;;;;;;;;21.60;78.90;;;;;;5075117;28;19969;-74
2023/07/28 14:06:20;;;;;;;;;;;21.60;78.90;;;;;;5068857;28;19926;-74
2023/07/28 14:08:45;;;;;;;;;;;21.70;78.80;;;;;;5086283;28;19973;-74